sensor_id;sensor_type;location;lat;lon;timestamp;temperature;humidity
2723;DHT22;1369;53.216;10.396;2022-12-07T00:03:36;3.70;99.90
2723;DHT22;1369;53.216;10.396;2022-12-07T00:06:03;3.70;99.90
2723;DHT22;1369;53.216;10.396;2022-12-07T00:08:30;3.70;99.90
2723;DHT22;1369;53.216;10.396;2022-12-07T00:11:03;3.70;99.90
2723;DHT22;1369;53.216;10.396;2022-12-07T00:13:30;3.70;99.90
2723;DHT22;1369;53.216;10.396;2022-12-07T00:16:00;3.70;99.90
2723;DHT22;1369;53.216;10.396;2022-12-07T00:18:26;3.70;99.90
2723;DHT22;1369;53.216;10.396;2022-12-07T00:20:51;3.70;99.90
2723;DHT22;1369;53.216;10.396;2022-12-07T00:23:16;3.70;99.90
2723;DHT22;1369;53.216;10.396;2022-12-07T00:25:42;3.80;99.90
2723;DHT22;1369;53.216;10.396;2022-12-07T00:28:07;3.80;99.90
2723;DHT22;1369;53.216;10.396;2022-12-07T00:30:34;3.80;99.90
2723;DHT22;1369;53.216;10.396;2022-12-07T00:33:00;3.90;99.90
2723;DHT22;1369;53.216;10.396;2022-12-07T00:35:25;3.90;99.90
2723;DHT22;1369;53.216;10.396;2022-12-07T00:37:51;3.90;99.90
2723;DHT22;1369;53.216;10.396;2022-12-07T00:40:16;3.90;99.90
2723;DHT22;1369;53.216;10.396;2022-12-07T00:42:42;3.90;99.90
2723;DHT22;1369;53.216;10.396;2022-12-07T00:45:08;3.90;99.90
2723;DHT22;1369;53.216;10.396;2022-12-07T00:47:33;4.00;99.90
2723;DHT22;1369;53.216;10.396;2022-12-07T00:49:59;4.00;99.90
2723;DHT22;1369;53.216;10.396;2022-12-07T00:52:25;4.00;99.90
2723;DHT22;1369;53.216;10.396;2022-12-07T00:54:50;4.00;99.90
2723;DHT22;1369;53.216;10.396;2022-12-07T00:57:16;4.00;99.90
2723;DHT22;1369;53.216;10.396;2022-12-07T00:59:41;4.00;99.90
2723;DHT22;1369;53.216;10.396;2022-12-07T01:02:07;4.00;99.90
2723;DHT22;1369;53.216;10.396;2022-12-07T01:04:34;4.00;99.90
2723;DHT22;1369;53.216;10.396;2022-12-07T01:06:59;4.00;99.90
2723;DHT22;1369;53.216;10.396;2022-12-07T01:09:25;4.00;99.90
2723;DHT22;1369;53.216;10.396;2022-12-07T01:11:50;4.00;99.90
2723;DHT22;1369;53.216;10.396;2022-12-07T01:14:18;4.00;99.90
2723;DHT22;1369;53.216;10.396;2022-12-07T01:16:43;4.10;99.90
2723;DHT22;1369;53.216;10.396;2022-12-07T01:19:09;4.00;99.90
2723;DHT22;1369;53.216;10.396;2022-12-07T01:21:35;4.00;99.90
2723;DHT22;1369;53.216;10.396;2022-12-07T01:24:04;4.10;99.90
2723;DHT22;1369;53.216;10.396;2022-12-07T01:26:29;4.10;99.90
2723;DHT22;1369;53.216;10.396;2022-12-07T01:28:55;4.10;99.90
2723;DHT22;1369;53.216;10.396;2022-12-07T01:31:23;4.10;99.90
2723;DHT22;1369;53.216;10.396;2022-12-07T01:33:54;4.10;99.90
2723;DHT22;1369;53.216;10.396;2022-12-07T01:36:29;4.10;99.90
2723;DHT22;1369;53.216;10.396;2022-12-07T01:39:01;4.10;99.90
2723;DHT22;1369;53.216;10.396;2022-12-07T01:41:30;4.10;99.90
2723;DHT22;1369;53.216;10.396;2022-12-07T01:44:16;4.10;99.90
2723;DHT22;1369;53.216;10.396;2022-12-07T01:46:49;4.10;99.90
2723;DHT22;1369;53.216;10.396;2022-12-07T01:51:45;4.20;99.90
2723;DHT22;1369;53.216;10.396;2022-12-07T01:54:13;4.20;99.90
2723;DHT22;1369;53.216;10.396;2022-12-07T01:56:44;4.20;99.90
2723;DHT22;1369;53.216;10.396;2022-12-07T01:59:12;4.20;99.90
2723;DHT22;1369;53.216;10.396;2022-12-07T02:01:38;4.20;99.90
2723;DHT22;1369;53.216;10.396;2022-12-07T02:04:04;4.30;99.90
2723;DHT22;1369;53.216;10.396;2022-12-07T02:06:31;4.30;99.90
2723;DHT22;1369;53.216;10.396;2022-12-07T02:08:56;4.30;99.90
2723;DHT22;1369;53.216;10.396;2022-12-07T02:11:22;4.30;99.90
2723;DHT22;1369;53.216;10.396;2022-12-07T02:13:48;4.30;99.90
2723;DHT22;1369;53.216;10.396;2022-12-07T02:22:22;4.40;99.90
2723;DHT22;1369;53.216;10.396;2022-12-07T02:27:52;4.40;99.90
2723;DHT22;1369;53.216;10.396;2022-12-07T02:30:23;4.40;99.90
2723;DHT22;1369;53.216;10.396;2022-12-07T02:33:03;4.40;99.90
2723;DHT22;1369;53.216;10.396;2022-12-07T02:35:36;4.40;99.90
2723;DHT22;1369;53.216;10.396;2022-12-07T02:43:38;4.30;99.90
2723;DHT22;1369;53.216;10.396;2022-12-07T02:46:09;4.30;99.90
2723;DHT22;1369;53.216;10.396;2022-12-07T02:48:37;4.30;99.90
2723;DHT22;1369;53.216;10.396;2022-12-07T02:51:03;4.40;99.90
2723;DHT22;1369;53.216;10.396;2022-12-07T03:02:01;4.40;99.90
2723;DHT22;1369;53.216;10.396;2022-12-07T03:04:56;4.40;99.90
2723;DHT22;1369;53.216;10.396;2022-12-07T03:07:55;4.40;99.90
2723;DHT22;1369;53.216;10.396;2022-12-07T03:10:40;4.40;99.90
2723;DHT22;1369;53.216;10.396;2022-12-07T03:19:06;4.20;99.90
2723;DHT22;1369;53.216;10.396;2022-12-07T03:21:45;4.20;99.90
2723;DHT22;1369;53.216;10.396;2022-12-07T03:24:15;4.20;99.90
2723;DHT22;1369;53.216;10.396;2022-12-07T03:26:55;4.10;99.90
2723;DHT22;1369;53.216;10.396;2022-12-07T03:29:48;4.00;99.90
2723;DHT22;1369;53.216;10.396;2022-12-07T03:37:45;3.80;99.90
2723;DHT22;1369;53.216;10.396;2022-12-07T03:40:32;3.70;99.90
2723;DHT22;1369;53.216;10.396;2022-12-07T03:43:01;3.60;99.90
2723;DHT22;1369;53.216;10.396;2022-12-07T03:45:37;3.60;99.90
2723;DHT22;1369;53.216;10.396;2022-12-07T03:48:35;3.60;99.90
2723;DHT22;1369;53.216;10.396;2022-12-07T03:51:20;3.60;99.90
2723;DHT22;1369;53.216;10.396;2022-12-07T03:53:52;3.60;99.90
2723;DHT22;1369;53.216;10.396;2022-12-07T03:56:20;3.70;99.90
2723;DHT22;1369;53.216;10.396;2022-12-07T03:58:47;3.70;99.90
2723;DHT22;1369;53.216;10.396;2022-12-07T04:01:13;3.80;99.90
2723;DHT22;1369;53.216;10.396;2022-12-07T04:03:39;3.80;99.90
2723;DHT22;1369;53.216;10.396;2022-12-07T04:06:04;3.90;99.90
2723;DHT22;1369;53.216;10.396;2022-12-07T04:08:30;3.90;99.90
2723;DHT22;1369;53.216;10.396;2022-12-07T04:10:56;3.80;99.90
2723;DHT22;1369;53.216;10.396;2022-12-07T04:13:21;3.80;99.90
2723;DHT22;1369;53.216;10.396;2022-12-07T04:15:47;3.70;99.90
2723;DHT22;1369;53.216;10.396;2022-12-07T04:18:12;3.60;99.90
2723;DHT22;1369;53.216;10.396;2022-12-07T04:20:38;3.60;99.90
2723;DHT22;1369;53.216;10.396;2022-12-07T04:23:03;3.60;99.90
2723;DHT22;1369;53.216;10.396;2022-12-07T04:25:29;3.60;99.90
2723;DHT22;1369;53.216;10.396;2022-12-07T04:27:54;3.50;99.90
2723;DHT22;1369;53.216;10.396;2022-12-07T04:30:20;3.50;99.90
2723;DHT22;1369;53.216;10.396;2022-12-07T04:32:45;3.50;99.90
2723;DHT22;1369;53.216;10.396;2022-12-07T04:35:11;3.60;99.90
2723;DHT22;1369;53.216;10.396;2022-12-07T04:37:36;3.60;99.90
2723;DHT22;1369;53.216;10.396;2022-12-07T04:40:05;3.50;99.90
2723;DHT22;1369;53.216;10.396;2022-12-07T04:42:32;3.40;99.90
2723;DHT22;1369;53.216;10.396;2022-12-07T04:44:58;3.40;99.90
2723;DHT22;1369;53.216;10.396;2022-12-07T04:47:23;3.30;99.90
2723;DHT22;1369;53.216;10.396;2022-12-07T04:49:48;3.20;99.90
2723;DHT22;1369;53.216;10.396;2022-12-07T04:52:14;3.10;99.90
2723;DHT22;1369;53.216;10.396;2022-12-07T04:54:39;3.10;99.90
2723;DHT22;1369;53.216;10.396;2022-12-07T04:57:05;3.10;99.90
2723;DHT22;1369;53.216;10.396;2022-12-07T04:59:30;3.00;99.90
2723;DHT22;1369;53.216;10.396;2022-12-07T05:01:56;2.90;99.90
2723;DHT22;1369;53.216;10.396;2022-12-07T05:04:21;2.90;99.90
2723;DHT22;1369;53.216;10.396;2022-12-07T05:06:47;3.00;99.90
2723;DHT22;1369;53.216;10.396;2022-12-07T05:09:12;2.90;99.90
2723;DHT22;1369;53.216;10.396;2022-12-07T05:11:38;2.90;99.90
2723;DHT22;1369;53.216;10.396;2022-12-07T05:14:15;2.90;99.90
2723;DHT22;1369;53.216;10.396;2022-12-07T05:16:41;2.90;99.90
2723;DHT22;1369;53.216;10.396;2022-12-07T05:19:08;2.80;99.90
2723;DHT22;1369;53.216;10.396;2022-12-07T05:21:34;2.80;99.90
2723;DHT22;1369;53.216;10.396;2022-12-07T05:24:00;2.80;99.90
2723;DHT22;1369;53.216;10.396;2022-12-07T05:26:26;2.80;99.90
2723;DHT22;1369;53.216;10.396;2022-12-07T05:28:53;2.70;99.90
2723;DHT22;1369;53.216;10.396;2022-12-07T05:31:19;2.70;99.90
2723;DHT22;1369;53.216;10.396;2022-12-07T05:33:45;2.70;99.90
2723;DHT22;1369;53.216;10.396;2022-12-07T05:36:10;2.60;99.90
2723;DHT22;1369;53.216;10.396;2022-12-07T05:38:36;2.70;99.90
2723;DHT22;1369;53.216;10.396;2022-12-07T05:41:03;2.70;99.90
2723;DHT22;1369;53.216;10.396;2022-12-07T05:43:29;2.70;99.90
2723;DHT22;1369;53.216;10.396;2022-12-07T05:45:54;2.60;99.90
2723;DHT22;1369;53.216;10.396;2022-12-07T05:48:20;2.60;99.90
2723;DHT22;1369;53.216;10.396;2022-12-07T05:50:48;2.50;99.90
2723;DHT22;1369;53.216;10.396;2022-12-07T05:53:13;2.50;99.90
2723;DHT22;1369;53.216;10.396;2022-12-07T05:55:39;2.40;99.90
2723;DHT22;1369;53.216;10.396;2022-12-07T05:58:04;2.40;99.90
2723;DHT22;1369;53.216;10.396;2022-12-07T06:00:48;2.50;99.90
2723;DHT22;1369;53.216;10.396;2022-12-07T06:03:14;2.50;99.90
2723;DHT22;1369;53.216;10.396;2022-12-07T06:05:39;2.50;99.90
2723;DHT22;1369;53.216;10.396;2022-12-07T06:08:05;2.50;99.90
2723;DHT22;1369;53.216;10.396;2022-12-07T06:10:30;2.50;99.90
2723;DHT22;1369;53.216;10.396;2022-12-07T06:12:56;2.40;99.90
2723;DHT22;1369;53.216;10.396;2022-12-07T06:15:22;2.40;99.90
2723;DHT22;1369;53.216;10.396;2022-12-07T06:17:48;2.40;99.90
2723;DHT22;1369;53.216;10.396;2022-12-07T06:20:14;2.30;99.90
2723;DHT22;1369;53.216;10.396;2022-12-07T06:22:39;2.30;99.90
2723;DHT22;1369;53.216;10.396;2022-12-07T06:25:05;2.30;99.90
2723;DHT22;1369;53.216;10.396;2022-12-07T06:27:32;2.20;99.90
2723;DHT22;1369;53.216;10.396;2022-12-07T06:29:58;2.20;99.90
2723;DHT22;1369;53.216;10.396;2022-12-07T06:32:23;2.20;99.90
2723;DHT22;1369;53.216;10.396;2022-12-07T06:34:49;2.10;99.90
2723;DHT22;1369;53.216;10.396;2022-12-07T06:37:14;2.10;99.90
2723;DHT22;1369;53.216;10.396;2022-12-07T06:39:40;2.10;99.90
2723;DHT22;1369;53.216;10.396;2022-12-07T06:42:05;2.10;99.90
2723;DHT22;1369;53.216;10.396;2022-12-07T06:44:30;2.10;99.90
2723;DHT22;1369;53.216;10.396;2022-12-07T06:46:56;2.10;99.90
2723;DHT22;1369;53.216;10.396;2022-12-07T06:49:22;2.10;99.90
2723;DHT22;1369;53.216;10.396;2022-12-07T06:51:47;2.10;99.90
2723;DHT22;1369;53.216;10.396;2022-12-07T06:54:14;2.10;99.90
2723;DHT22;1369;53.216;10.396;2022-12-07T06:56:40;2.10;99.90
2723;DHT22;1369;53.216;10.396;2022-12-07T06:59:06;2.10;99.90
2723;DHT22;1369;53.216;10.396;2022-12-07T07:01:33;2.10;99.90
2723;DHT22;1369;53.216;10.396;2022-12-07T07:03:59;2.00;99.90
2723;DHT22;1369;53.216;10.396;2022-12-07T07:06:24;2.00;99.90
2723;DHT22;1369;53.216;10.396;2022-12-07T07:08:50;2.10;99.90
2723;DHT22;1369;53.216;10.396;2022-12-07T07:11:16;2.10;99.90
2723;DHT22;1369;53.216;10.396;2022-12-07T07:13:41;2.10;99.90
2723;DHT22;1369;53.216;10.396;2022-12-07T07:16:07;2.10;99.90
2723;DHT22;1369;53.216;10.396;2022-12-07T07:18:33;2.20;99.90
2723;DHT22;1369;53.216;10.396;2022-12-07T07:20:59;2.20;99.90
2723;DHT22;1369;53.216;10.396;2022-12-07T07:23:26;2.20;99.90
2723;DHT22;1369;53.216;10.396;2022-12-07T07:25:51;2.30;99.90
2723;DHT22;1369;53.216;10.396;2022-12-07T07:28:17;2.30;99.90
2723;DHT22;1369;53.216;10.396;2022-12-07T07:30:43;2.40;99.90
2723;DHT22;1369;53.216;10.396;2022-12-07T07:33:09;2.40;99.90
2723;DHT22;1369;53.216;10.396;2022-12-07T07:35:35;2.40;99.90
2723;DHT22;1369;53.216;10.396;2022-12-07T07:38:01;2.50;99.90
2723;DHT22;1369;53.216;10.396;2022-12-07T07:40:27;2.60;99.90
2723;DHT22;1369;53.216;10.396;2022-12-07T07:42:54;2.60;99.90
2723;DHT22;1369;53.216;10.396;2022-12-07T07:45:21;2.60;99.90
2723;DHT22;1369;53.216;10.396;2022-12-07T07:47:48;2.60;99.90
2723;DHT22;1369;53.216;10.396;2022-12-07T07:50:13;2.60;99.90
2723;DHT22;1369;53.216;10.396;2022-12-07T07:52:39;2.70;99.90
2723;DHT22;1369;53.216;10.396;2022-12-07T07:55:05;2.70;99.90
2723;DHT22;1369;53.216;10.396;2022-12-07T07:57:32;2.70;99.90
2723;DHT22;1369;53.216;10.396;2022-12-07T07:59:58;2.80;99.90
2723;DHT22;1369;53.216;10.396;2022-12-07T08:02:23;2.80;99.90
2723;DHT22;1369;53.216;10.396;2022-12-07T08:04:49;2.80;99.90
2723;DHT22;1369;53.216;10.396;2022-12-07T08:07:15;2.90;99.90
2723;DHT22;1369;53.216;10.396;2022-12-07T08:09:41;2.90;99.90
2723;DHT22;1369;53.216;10.396;2022-12-07T08:12:07;3.00;99.90
2723;DHT22;1369;53.216;10.396;2022-12-07T08:14:33;3.10;99.90
2723;DHT22;1369;53.216;10.396;2022-12-07T08:16:59;3.10;99.90
2723;DHT22;1369;53.216;10.396;2022-12-07T08:19:25;3.10;99.90
2723;DHT22;1369;53.216;10.396;2022-12-07T08:21:50;3.20;99.90
2723;DHT22;1369;53.216;10.396;2022-12-07T08:24:16;3.20;99.90
2723;DHT22;1369;53.216;10.396;2022-12-07T08:26:42;3.20;99.90
2723;DHT22;1369;53.216;10.396;2022-12-07T08:29:07;3.20;99.90
2723;DHT22;1369;53.216;10.396;2022-12-07T08:31:33;3.30;99.90
2723;DHT22;1369;53.216;10.396;2022-12-07T08:33:59;3.30;99.90
2723;DHT22;1369;53.216;10.396;2022-12-07T08:36:24;3.30;99.90
2723;DHT22;1369;53.216;10.396;2022-12-07T08:38:50;3.30;99.90
2723;DHT22;1369;53.216;10.396;2022-12-07T08:41:16;3.40;99.90
2723;DHT22;1369;53.216;10.396;2022-12-07T08:43:42;3.50;99.90
2723;DHT22;1369;53.216;10.396;2022-12-07T08:46:24;3.50;99.90
2723;DHT22;1369;53.216;10.396;2022-12-07T08:49:02;3.50;99.90
2723;DHT22;1369;53.216;10.396;2022-12-07T08:51:28;3.60;99.90
2723;DHT22;1369;53.216;10.396;2022-12-07T08:53:54;3.60;99.90
2723;DHT22;1369;53.216;10.396;2022-12-07T08:56:20;3.60;99.90
2723;DHT22;1369;53.216;10.396;2022-12-07T08:58:46;3.70;99.90
2723;DHT22;1369;53.216;10.396;2022-12-07T09:01:12;3.70;99.90
2723;DHT22;1369;53.216;10.396;2022-12-07T09:03:37;3.80;99.90
2723;DHT22;1369;53.216;10.396;2022-12-07T09:06:03;3.80;99.90
2723;DHT22;1369;53.216;10.396;2022-12-07T09:08:33;3.90;99.90
2723;DHT22;1369;53.216;10.396;2022-12-07T09:11:00;3.90;99.90
2723;DHT22;1369;53.216;10.396;2022-12-07T09:13:25;4.00;99.90
2723;DHT22;1369;53.216;10.396;2022-12-07T09:15:51;4.10;99.90
2723;DHT22;1369;53.216;10.396;2022-12-07T09:18:16;4.20;99.90
2723;DHT22;1369;53.216;10.396;2022-12-07T09:20:42;4.20;99.90
2723;DHT22;1369;53.216;10.396;2022-12-07T09:23:07;4.30;99.90
2723;DHT22;1369;53.216;10.396;2022-12-07T09:25:34;4.40;99.90
2723;DHT22;1369;53.216;10.396;2022-12-07T09:28:00;4.50;99.90
2723;DHT22;1369;53.216;10.396;2022-12-07T09:30:26;4.50;99.90
2723;DHT22;1369;53.216;10.396;2022-12-07T09:32:54;4.60;99.90
2723;DHT22;1369;53.216;10.396;2022-12-07T09:35:20;4.50;99.90
2723;DHT22;1369;53.216;10.396;2022-12-07T09:37:45;4.50;99.90
2723;DHT22;1369;53.216;10.396;2022-12-07T09:40:11;4.60;99.90
2723;DHT22;1369;53.216;10.396;2022-12-07T09:42:39;4.50;99.90
2723;DHT22;1369;53.216;10.396;2022-12-07T09:45:17;4.60;99.90
2723;DHT22;1369;53.216;10.396;2022-12-07T09:47:44;4.60;99.90
2723;DHT22;1369;53.216;10.396;2022-12-07T09:50:16;4.60;99.90
2723;DHT22;1369;53.216;10.396;2022-12-07T09:52:45;4.60;99.90
2723;DHT22;1369;53.216;10.396;2022-12-07T09:55:15;4.70;99.90
2723;DHT22;1369;53.216;10.396;2022-12-07T09:57:42;4.60;99.90
2723;DHT22;1369;53.216;10.396;2022-12-07T10:00:16;4.60;99.90
2723;DHT22;1369;53.216;10.396;2022-12-07T10:02:47;4.60;99.90
2723;DHT22;1369;53.216;10.396;2022-12-07T10:05:18;4.60;99.90
2723;DHT22;1369;53.216;10.396;2022-12-07T10:07:44;4.50;99.90
2723;DHT22;1369;53.216;10.396;2022-12-07T10:10:24;4.50;99.90
2723;DHT22;1369;53.216;10.396;2022-12-07T10:23:40;4.90;99.90
2723;DHT22;1369;53.216;10.396;2022-12-07T10:28:54;5.10;99.90
2723;DHT22;1369;53.216;10.396;2022-12-07T10:31:22;5.20;99.90
2723;DHT22;1369;53.216;10.396;2022-12-07T10:33:54;5.30;99.90
2723;DHT22;1369;53.216;10.396;2022-12-07T10:38:52;5.30;99.90
2723;DHT22;1369;53.216;10.396;2022-12-07T10:41:18;5.30;99.90
2723;DHT22;1369;53.216;10.396;2022-12-07T10:43:50;5.30;99.90
2723;DHT22;1369;53.216;10.396;2022-12-07T10:52:56;5.40;99.90
2723;DHT22;1369;53.216;10.396;2022-12-07T11:04:15;5.60;99.90
2723;DHT22;1369;53.216;10.396;2022-12-07T11:07:06;5.60;99.90
2723;DHT22;1369;53.216;10.396;2022-12-07T11:12:29;5.70;99.90
2723;DHT22;1369;53.216;10.396;2022-12-07T11:21:09;5.50;99.90
2723;DHT22;1369;53.216;10.396;2022-12-07T11:27:13;5.40;99.90
2723;DHT22;1369;53.216;10.396;2022-12-07T11:38:18;5.20;99.90
2723;DHT22;1369;53.216;10.396;2022-12-07T11:40:50;5.20;99.90
2723;DHT22;1369;53.216;10.396;2022-12-07T11:43:32;5.30;99.90
2723;DHT22;1369;53.216;10.396;2022-12-07T11:46:10;5.30;99.90
2723;DHT22;1369;53.216;10.396;2022-12-07T11:49:02;5.30;99.90
2723;DHT22;1369;53.216;10.396;2022-12-07T11:51:30;5.30;99.90
2723;DHT22;1369;53.216;10.396;2022-12-07T11:54:03;5.30;99.90
2723;DHT22;1369;53.216;10.396;2022-12-07T11:56:35;5.30;99.90
2723;DHT22;1369;53.216;10.396;2022-12-07T11:59:23;5.40;99.90
2723;DHT22;1369;53.216;10.396;2022-12-07T12:01:56;5.40;99.90
2723;DHT22;1369;53.216;10.396;2022-12-07T12:04:34;5.40;99.90
2723;DHT22;1369;53.216;10.396;2022-12-07T12:07:06;5.40;99.90
2723;DHT22;1369;53.216;10.396;2022-12-07T12:09:36;5.40;99.90
2723;DHT22;1369;53.216;10.396;2022-12-07T12:20:35;5.50;99.90
2723;DHT22;1369;53.216;10.396;2022-12-07T12:23:12;5.40;99.90
2723;DHT22;1369;53.216;10.396;2022-12-07T12:25:45;5.30;99.90
2723;DHT22;1369;53.216;10.396;2022-12-07T12:29:02;5.20;99.90
2723;DHT22;1369;53.216;10.396;2022-12-07T12:31:34;5.10;99.90
2723;DHT22;1369;53.216;10.396;2022-12-07T12:34:04;5.10;99.90
2723;DHT22;1369;53.216;10.396;2022-12-07T12:39:14;5.10;99.90
2723;DHT22;1369;53.216;10.396;2022-12-07T12:51:49;5.00;99.90
2723;DHT22;1369;53.216;10.396;2022-12-07T12:54:21;5.10;99.90
2723;DHT22;1369;53.216;10.396;2022-12-07T12:57:07;5.10;99.90
2723;DHT22;1369;53.216;10.396;2022-12-07T13:02:47;5.20;99.90
2723;DHT22;1369;53.216;10.396;2022-12-07T13:31:18;4.90;99.90
2723;DHT22;1369;53.216;10.396;2022-12-07T13:33:46;4.80;99.90
2723;DHT22;1369;53.216;10.396;2022-12-07T13:36:20;4.70;99.90
2723;DHT22;1369;53.216;10.396;2022-12-07T13:38:54;4.60;99.90
2723;DHT22;1369;53.216;10.396;2022-12-07T13:41:22;4.60;99.90
2723;DHT22;1369;53.216;10.396;2022-12-07T13:43:50;4.50;99.90
2723;DHT22;1369;53.216;10.396;2022-12-07T13:46:24;4.40;99.90
2723;DHT22;1369;53.216;10.396;2022-12-07T13:48:51;4.40;99.90
2723;DHT22;1369;53.216;10.396;2022-12-07T13:51:25;4.30;99.90
2723;DHT22;1369;53.216;10.396;2022-12-07T13:54:00;4.20;99.90
2723;DHT22;1369;53.216;10.396;2022-12-07T13:56:46;4.20;99.90
2723;DHT22;1369;53.216;10.396;2022-12-07T13:59:24;4.10;99.90
2723;DHT22;1369;53.216;10.396;2022-12-07T14:01:51;4.10;99.90
2723;DHT22;1369;53.216;10.396;2022-12-07T14:04:31;4.10;99.90
2723;DHT22;1369;53.216;10.396;2022-12-07T14:06:57;4.10;99.90
2723;DHT22;1369;53.216;10.396;2022-12-07T14:09:25;4.20;99.90
2723;DHT22;1369;53.216;10.396;2022-12-07T14:11:53;4.20;99.90
2723;DHT22;1369;53.216;10.396;2022-12-07T14:14:25;4.30;99.90
2723;DHT22;1369;53.216;10.396;2022-12-07T14:17:11;4.20;99.90
2723;DHT22;1369;53.216;10.396;2022-12-07T14:19:49;4.20;99.90
2723;DHT22;1369;53.216;10.396;2022-12-07T14:24:48;4.10;99.90
2723;DHT22;1369;53.216;10.396;2022-12-07T14:27:21;4.10;99.90
2723;DHT22;1369;53.216;10.396;2022-12-07T14:29:47;4.10;99.90
2723;DHT22;1369;53.216;10.396;2022-12-07T14:32:21;4.00;99.90
2723;DHT22;1369;53.216;10.396;2022-12-07T14:37:20;3.90;99.90
2723;DHT22;1369;53.216;10.396;2022-12-07T14:39:45;3.90;99.90
2723;DHT22;1369;53.216;10.396;2022-12-07T14:42:11;3.80;99.90
2723;DHT22;1369;53.216;10.396;2022-12-07T14:44:36;3.80;99.90
2723;DHT22;1369;53.216;10.396;2022-12-07T14:47:02;3.70;99.90
2723;DHT22;1369;53.216;10.396;2022-12-07T14:49:27;3.70;99.90
2723;DHT22;1369;53.216;10.396;2022-12-07T14:51:53;3.70;99.90
2723;DHT22;1369;53.216;10.396;2022-12-07T14:54:20;3.60;99.90
2723;DHT22;1369;53.216;10.396;2022-12-07T14:56:46;3.60;99.90
2723;DHT22;1369;53.216;10.396;2022-12-07T14:59:16;3.50;99.90
2723;DHT22;1369;53.216;10.396;2022-12-07T15:01:42;3.50;99.90
2723;DHT22;1369;53.216;10.396;2022-12-07T15:04:08;3.50;99.90
2723;DHT22;1369;53.216;10.396;2022-12-07T15:06:35;3.50;99.90
2723;DHT22;1369;53.216;10.396;2022-12-07T15:09:00;3.50;99.90
2723;DHT22;1369;53.216;10.396;2022-12-07T15:11:26;3.50;99.90
2723;DHT22;1369;53.216;10.396;2022-12-07T15:13:51;3.40;99.90
2723;DHT22;1369;53.216;10.396;2022-12-07T15:16:39;3.40;99.90
2723;DHT22;1369;53.216;10.396;2022-12-07T15:19:06;3.40;99.90
2723;DHT22;1369;53.216;10.396;2022-12-07T15:21:34;3.30;99.90
2723;DHT22;1369;53.216;10.396;2022-12-07T15:24:00;3.30;99.90
2723;DHT22;1369;53.216;10.396;2022-12-07T15:26:25;3.20;99.90
2723;DHT22;1369;53.216;10.396;2022-12-07T15:28:53;3.10;99.90
2723;DHT22;1369;53.216;10.396;2022-12-07T15:31:19;3.10;99.90
2723;DHT22;1369;53.216;10.396;2022-12-07T15:33:44;3.00;99.90
2723;DHT22;1369;53.216;10.396;2022-12-07T15:36:19;3.00;99.90
2723;DHT22;1369;53.216;10.396;2022-12-07T15:38:45;2.90;99.90
2723;DHT22;1369;53.216;10.396;2022-12-07T15:41:11;2.90;99.90
2723;DHT22;1369;53.216;10.396;2022-12-07T15:43:36;2.80;99.90
2723;DHT22;1369;53.216;10.396;2022-12-07T15:46:21;2.80;99.90
2723;DHT22;1369;53.216;10.396;2022-12-07T15:48:46;2.80;99.90
2723;DHT22;1369;53.216;10.396;2022-12-07T15:51:12;2.90;99.90
2723;DHT22;1369;53.216;10.396;2022-12-07T15:53:37;2.90;99.90
2723;DHT22;1369;53.216;10.396;2022-12-07T15:56:07;2.90;99.90
2723;DHT22;1369;53.216;10.396;2022-12-07T15:58:33;2.90;99.90
2723;DHT22;1369;53.216;10.396;2022-12-07T16:00:58;2.90;99.90
2723;DHT22;1369;53.216;10.396;2022-12-07T16:03:24;2.90;99.90
2723;DHT22;1369;53.216;10.396;2022-12-07T16:05:51;2.90;99.90
2723;DHT22;1369;53.216;10.396;2022-12-07T16:08:16;2.90;99.90
2723;DHT22;1369;53.216;10.396;2022-12-07T16:10:42;2.90;99.90
2723;DHT22;1369;53.216;10.396;2022-12-07T16:13:09;2.90;99.90
2723;DHT22;1369;53.216;10.396;2022-12-07T16:15:38;2.90;99.90
2723;DHT22;1369;53.216;10.396;2022-12-07T16:18:04;2.90;99.90
2723;DHT22;1369;53.216;10.396;2022-12-07T16:20:29;2.90;99.90
2723;DHT22;1369;53.216;10.396;2022-12-07T16:22:54;2.90;99.90
2723;DHT22;1369;53.216;10.396;2022-12-07T16:25:20;2.80;99.90
2723;DHT22;1369;53.216;10.396;2022-12-07T16:27:45;2.70;99.90
2723;DHT22;1369;53.216;10.396;2022-12-07T16:30:12;2.60;99.90
2723;DHT22;1369;53.216;10.396;2022-12-07T16:32:39;2.50;99.90
2723;DHT22;1369;53.216;10.396;2022-12-07T16:35:04;2.50;99.90
2723;DHT22;1369;53.216;10.396;2022-12-07T16:37:30;2.40;99.90
2723;DHT22;1369;53.216;10.396;2022-12-07T16:39:55;2.40;99.90
2723;DHT22;1369;53.216;10.396;2022-12-07T16:42:21;2.30;99.90
2723;DHT22;1369;53.216;10.396;2022-12-07T16:44:46;2.30;99.90
2723;DHT22;1369;53.216;10.396;2022-12-07T16:47:12;2.30;99.90
2723;DHT22;1369;53.216;10.396;2022-12-07T16:49:37;2.20;99.90
2723;DHT22;1369;53.216;10.396;2022-12-07T16:52:03;2.20;99.90
2723;DHT22;1369;53.216;10.396;2022-12-07T16:54:28;2.20;99.90
2723;DHT22;1369;53.216;10.396;2022-12-07T16:56:57;2.20;99.90
2723;DHT22;1369;53.216;10.396;2022-12-07T16:59:23;2.20;99.90
2723;DHT22;1369;53.216;10.396;2022-12-07T17:01:48;2.10;99.90
2723;DHT22;1369;53.216;10.396;2022-12-07T17:04:14;2.10;99.90
2723;DHT22;1369;53.216;10.396;2022-12-07T17:06:39;2.00;99.90
2723;DHT22;1369;53.216;10.396;2022-12-07T17:09:04;1.90;99.90
2723;DHT22;1369;53.216;10.396;2022-12-07T17:11:34;1.90;99.90
2723;DHT22;1369;53.216;10.396;2022-12-07T17:14:00;1.80;99.90
2723;DHT22;1369;53.216;10.396;2022-12-07T17:16:43;1.80;99.90
2723;DHT22;1369;53.216;10.396;2022-12-07T17:19:12;1.80;99.90
2723;DHT22;1369;53.216;10.396;2022-12-07T17:21:38;1.80;99.90
2723;DHT22;1369;53.216;10.396;2022-12-07T17:24:06;1.70;99.90
2723;DHT22;1369;53.216;10.396;2022-12-07T17:26:32;1.70;99.90
2723;DHT22;1369;53.216;10.396;2022-12-07T17:28:58;1.70;99.90
2723;DHT22;1369;53.216;10.396;2022-12-07T17:31:24;1.70;99.90
2723;DHT22;1369;53.216;10.396;2022-12-07T17:33:50;1.70;99.90
2723;DHT22;1369;53.216;10.396;2022-12-07T17:36:21;1.60;99.90
2723;DHT22;1369;53.216;10.396;2022-12-07T17:38:47;1.60;99.90
2723;DHT22;1369;53.216;10.396;2022-12-07T17:41:15;1.60;99.90
2723;DHT22;1369;53.216;10.396;2022-12-07T17:44:01;1.60;99.90
2723;DHT22;1369;53.216;10.396;2022-12-07T17:46:27;1.50;99.90
2723;DHT22;1369;53.216;10.396;2022-12-07T17:48:56;1.50;99.90
2723;DHT22;1369;53.216;10.396;2022-12-07T17:51:22;1.50;99.90
2723;DHT22;1369;53.216;10.396;2022-12-07T17:54:06;1.50;99.90
2723;DHT22;1369;53.216;10.396;2022-12-07T17:56:32;1.40;99.90
2723;DHT22;1369;53.216;10.396;2022-12-07T17:58:57;1.40;99.90
2723;DHT22;1369;53.216;10.396;2022-12-07T18:01:23;1.40;99.90
2723;DHT22;1369;53.216;10.396;2022-12-07T18:03:49;1.40;99.90
2723;DHT22;1369;53.216;10.396;2022-12-07T18:06:14;1.40;99.90
2723;DHT22;1369;53.216;10.396;2022-12-07T18:08:39;1.40;99.90
2723;DHT22;1369;53.216;10.396;2022-12-07T18:11:06;1.40;99.90
2723;DHT22;1369;53.216;10.396;2022-12-07T18:13:32;1.40;99.90
2723;DHT22;1369;53.216;10.396;2022-12-07T18:16:07;1.30;99.90
2723;DHT22;1369;53.216;10.396;2022-12-07T18:18:34;1.30;99.90
2723;DHT22;1369;53.216;10.396;2022-12-07T18:21:04;1.40;99.90
2723;DHT22;1369;53.216;10.396;2022-12-07T18:23:31;1.30;99.90
2723;DHT22;1369;53.216;10.396;2022-12-07T18:25:59;1.30;99.90
2723;DHT22;1369;53.216;10.396;2022-12-07T18:28:24;1.30;99.90
2723;DHT22;1369;53.216;10.396;2022-12-07T18:30:50;1.20;99.90
2723;DHT22;1369;53.216;10.396;2022-12-07T18:33:19;1.10;99.90
2723;DHT22;1369;53.216;10.396;2022-12-07T18:35:46;1.00;99.90
2723;DHT22;1369;53.216;10.396;2022-12-07T18:38:16;1.00;99.90